createdAt,value
2019-03-23T00:00:59.511Z,79.62
2019-03-23T00:06:08.383Z,77.61
2019-03-23T00:11:17.314Z,81.12
2019-03-23T00:16:26.231Z,81.32
2019-03-23T00:21:35.172Z,86.59
2019-03-23T00:26:44.093Z,88.54
2019-03-23T00:31:53.059Z,88.65
2019-03-23T00:37:01.921Z,80.96
2019-03-23T00:42:10.943Z,82.01
2019-03-23T00:47:19.879Z,84.89
2019-03-23T00:52:28.831Z,92.19
2019-03-23T00:57:37.696Z,88.66
2019-03-23T01:02:46.643Z,84.02
2019-03-23T01:07:55.552Z,92.49
2019-03-23T01:13:04.598Z,87.49
2019-03-23T01:18:13.465Z,91.29
2019-03-23T01:23:22.483Z,90.24
2019-03-23T01:28:31.427Z,91.01
2019-03-23T01:33:40.463Z,93.13
2019-03-23T01:38:49.401Z,88.80
2019-03-23T01:43:58.298Z,93.58
2019-03-23T01:49:07.208Z,94.37
2019-03-23T01:54:16.241Z,92.13
2019-03-23T01:59:25.100Z,97.32
2019-03-23T02:04:34.036Z,93.54
2019-03-23T02:09:42.992Z,97.21
2019-03-23T02:14:51.930Z,91.36
2019-03-23T02:20:00.769Z,92.77
2019-03-23T02:25:09.691Z,90.66
2019-03-23T02:30:18.588Z,90.06
2019-03-23T02:35:27.478Z,95.44
2019-03-23T02:40:36.404Z,90.48
2019-03-23T02:45:45.359Z,93.40
2019-03-23T02:50:54.304Z,91.86
2019-03-23T02:56:03.247Z,87.51
2019-03-23T03:01:12.100Z,87.03
2019-03-23T03:06:21.073Z,86.82
2019-03-23T03:11:30.019Z,89.86
2019-03-23T03:16:38.891Z,94.65
2019-03-23T03:21:47.781Z,90.70
2019-03-23T03:26:56.735Z,85.17
2019-03-23T03:32:05.651Z,86.94
2019-03-23T03:37:14.583Z,89.40
2019-03-23T03:42:23.522Z,87.10
2019-03-23T03:47:32.451Z,95.92
2019-03-23T03:52:41.408Z,89.42
2019-03-23T03:57:50.470Z,95.02
2019-03-23T04:02:59.302Z,93.21
2019-03-23T04:08:11.447Z,86.56
2019-03-23T04:13:16.674Z,83.39
2019-03-23T04:18:25.627Z,91.36
2019-03-23T04:23:34.527Z,89.34
2019-03-23T04:28:43.508Z,92.32
2019-03-23T04:33:52.373Z,85.96
2019-03-23T04:39:01.294Z,77.69
2019-03-23T04:44:10.191Z,76.54
2019-03-23T04:49:19.065Z,75.06
2019-03-23T04:54:27.974Z,75.12
2019-03-23T04:59:36.944Z,90.80
2019-03-23T05:04:45.849Z,98.69
2019-03-23T05:09:54.866Z,98.50
2019-03-23T05:15:03.788Z,92.10
2019-03-23T05:20:12.933Z,93.42
2019-03-23T05:25:21.824Z,92.50
2019-03-23T05:30:30.779Z,90.67
2019-03-23T05:35:39.697Z,92.53
2019-03-23T05:40:48.675Z,90.34
2019-03-23T05:45:57.577Z,86.01
2019-03-23T05:51:06.484Z,85.15
2019-03-23T05:56:15.380Z,81.52
2019-03-23T06:01:24.533Z,92.90
2019-03-23T06:06:33.444Z,71.28
2019-03-23T06:11:42.443Z,76.47
2019-03-23T06:16:51.389Z,71.06
2019-03-23T06:22:00.392Z,87.55
2019-03-23T06:27:09.316Z,64.59
2019-03-23T06:32:20.580Z,62.02
2019-03-23T06:37:26.749Z,54.42
2019-03-23T06:42:35.675Z,55.90
2019-03-23T06:47:44.547Z,60.89
2019-03-23T06:52:53.452Z,48.55
2019-03-23T06:58:02.344Z,52.13
2019-03-23T07:03:11.237Z,49.65
2019-03-23T07:08:20.167Z,45.39
2019-03-23T07:13:29.044Z,46.72
2019-03-23T07:18:37.951Z,44.93
2019-03-23T07:23:46.877Z,45.04
2019-03-23T07:28:55.740Z,41.50
2019-03-23T07:34:06.207Z,43.96
2019-03-23T07:39:13.040Z,41.14
2019-03-23T07:44:21.996Z,38.53
2019-03-23T07:49:30.856Z,38.53
2019-03-23T07:54:39.776Z,39.25
2019-03-23T07:59:48.702Z,36.05
2019-03-23T08:04:57.645Z,36.24
2019-03-23T08:10:06.568Z,36.19
2019-03-23T08:15:15.465Z,33.57
2019-03-23T08:20:24.350Z,34.91
2019-03-23T08:25:33.315Z,31.66
2019-03-23T08:30:42.188Z,29.78
2019-03-23T08:35:51.100Z,30.26
2019-03-23T08:40:59.961Z,30.71
2019-03-23T08:46:08.877Z,30.00
2019-03-23T08:51:17.744Z,29.18
2019-03-23T08:56:26.692Z,28.28
2019-03-23T09:01:35.580Z,26.11
2019-03-23T09:06:44.516Z,26.11
2019-03-23T09:11:53.439Z,27.99
2019-03-23T09:17:02.325Z,25.30
2019-03-23T09:22:11.204Z,23.11
2019-03-23T09:27:20.111Z,26.39
2019-03-23T09:32:28.983Z,25.70
2019-03-23T09:37:38.031Z,24.89
2019-03-23T09:42:46.282Z,24.03
2019-03-23T09:47:55.143Z,24.38
2019-03-23T09:53:04.020Z,23.75
2019-03-23T09:58:12.946Z,22.85
2019-03-23T10:03:21.811Z,22.70
2019-03-23T10:08:30.775Z,22.94
2019-03-23T10:13:39.640Z,22.73
2019-03-23T10:18:48.504Z,23.49
2019-03-23T10:23:57.394Z,20.92
2019-03-23T10:29:06.288Z,22.07
2019-03-23T10:34:15.140Z,20.61
2019-03-23T10:39:23.992Z,22.47
2019-03-23T10:44:32.857Z,20.03
2019-03-23T10:49:41.776Z,17.46
2019-03-23T10:54:50.675Z,18.09
2019-03-23T10:59:59.585Z,17.19
2019-03-23T11:05:08.464Z,14.78
2019-03-23T11:10:17.355Z,18.64
2019-03-23T11:15:26.283Z,16.79
2019-03-23T11:20:35.196Z,15.63
2019-03-23T11:25:44.080Z,13.11
2019-03-23T11:30:53.093Z,16.82
2019-03-23T11:36:01.944Z,16.24
2019-03-23T11:41:10.861Z,17.67
2019-03-23T11:46:19.756Z,19.19
2019-03-23T11:51:28.699Z,15.46
2019-03-23T11:56:37.580Z,14.81
2019-03-23T12:01:51.716Z,16.79
2019-03-23T12:06:54.907Z,18.08
2019-03-23T12:12:03.823Z,14.19
2019-03-23T12:17:12.683Z,14.11
2019-03-23T12:22:21.607Z,15.26
2019-03-23T12:27:30.471Z,14.12
2019-03-23T12:32:39.384Z,12.15
2019-03-23T12:37:48.249Z,15.00
2019-03-23T12:42:57.172Z,11.90
2019-03-23T12:48:06.209Z,15.72
2019-03-23T12:53:15.100Z,13.22
2019-03-23T12:58:23.968Z,13.36
2019-03-23T13:03:32.876Z,14.48
2019-03-23T13:08:41.775Z,13.26
2019-03-23T13:13:50.716Z,12.43
2019-03-23T13:18:59.541Z,12.96
2019-03-23T13:24:08.417Z,13.14
2019-03-23T13:29:17.312Z,11.86
2019-03-23T13:34:26.233Z,16.47
2019-03-23T13:39:35.131Z,15.58
2019-03-23T13:44:44.111Z,16.29
2019-03-23T13:49:53.002Z,12.97
2019-03-23T13:55:01.943Z,15.18
2019-03-23T14:00:10.796Z,14.16
2019-03-23T14:05:19.732Z,13.98
2019-03-23T14:10:28.615Z,13.60
2019-03-23T14:15:37.516Z,14.18
2019-03-23T14:20:46.408Z,15.27
2019-03-23T14:25:55.380Z,17.08
2019-03-23T14:31:04.295Z,15.06
2019-03-23T14:36:13.182Z,16.59
2019-03-23T14:41:22.050Z,18.02
2019-03-23T14:46:31.066Z,17.36
2019-03-23T14:51:39.947Z,12.58
2019-03-23T14:56:48.832Z,18.02
2019-03-23T15:01:57.699Z,13.51
2019-03-23T15:07:06.630Z,15.01
2019-03-23T15:12:15.546Z,15.03
2019-03-23T15:17:24.412Z,16.54
2019-03-23T15:22:33.271Z,13.92
2019-03-23T15:27:42.198Z,14.14
2019-03-23T15:32:51.048Z,17.91
2019-03-23T15:37:59.981Z,16.18
2019-03-23T15:43:08.820Z,14.27
2019-03-23T15:48:17.771Z,14.09
2019-03-23T15:53:26.614Z,17.30
2019-03-23T15:58:35.524Z,16.49
2019-03-23T16:03:44.386Z,16.81
2019-03-23T16:08:53.308Z,18.30
2019-03-23T16:14:02.206Z,18.84
2019-03-23T16:19:11.108Z,14.18
2019-03-23T16:24:19.988Z,15.19
2019-03-23T16:29:28.933Z,17.78
2019-03-23T16:34:37.846Z,18.95
2019-03-23T16:39:46.748Z,15.72
2019-03-23T16:44:55.606Z,19.18
2019-03-23T16:50:04.565Z,15.11
2019-03-23T16:55:13.424Z,16.42
2019-03-23T17:00:22.326Z,16.87
2019-03-23T17:05:31.207Z,15.99
2019-03-23T17:10:40.150Z,18.22
2019-03-23T17:15:49.043Z,15.96
2019-03-23T17:20:57.963Z,15.95
2019-03-23T17:26:06.851Z,13.57
2019-03-23T17:31:15.800Z,15.05
2019-03-23T17:36:24.740Z,16.97
2019-03-23T17:41:33.646Z,20.88
2019-03-23T17:46:42.497Z,17.45
2019-03-23T17:51:51.380Z,15.85
2019-03-23T17:57:00.302Z,21.15
2019-03-23T18:02:09.297Z,17.28
2019-03-23T18:07:18.187Z,16.89
2019-03-23T18:12:27.227Z,16.24
2019-03-23T18:17:36.087Z,18.42
2019-03-23T18:22:44.987Z,13.50
2019-03-23T18:27:53.861Z,17.15
2019-03-23T18:33:02.799Z,19.26
2019-03-23T18:38:11.659Z,18.98
2019-03-23T18:43:27.522Z,16.35
2019-03-23T18:48:29.011Z,16.06
2019-03-23T18:53:37.956Z,18.26
2019-03-23T18:58:46.832Z,16.13
2019-03-23T19:03:55.780Z,17.38
2019-03-23T19:09:04.685Z,16.51
2019-03-23T19:14:13.591Z,16.29
2019-03-23T19:19:22.467Z,18.85
2019-03-23T19:24:31.351Z,18.86
2019-03-23T19:29:40.227Z,17.13
2019-03-23T19:34:49.116Z,21.00
2019-03-23T19:39:57.975Z,16.08
2019-03-23T19:45:06.913Z,17.44
2019-03-23T19:50:15.804Z,15.55
2019-03-23T19:55:24.743Z,16.88
2019-03-23T20:00:33.595Z,18.10
2019-03-23T20:05:42.538Z,18.30
2019-03-23T20:10:51.374Z,22.90
2019-03-23T20:16:00.258Z,32.39
2019-03-23T20:21:09.156Z,31.86
2019-03-23T20:26:18.021Z,24.86
2019-03-23T20:31:26.940Z,28.60
2019-03-23T20:36:35.837Z,27.97
2019-03-23T20:41:44.700Z,24.66
2019-03-23T20:46:53.569Z,21.33
2019-03-23T20:52:02.547Z,24.84
2019-03-23T20:57:11.441Z,25.68
2019-03-23T21:02:20.339Z,26.42
2019-03-23T21:07:29.208Z,21.13
2019-03-23T21:12:38.116Z,22.17
2019-03-23T21:17:51.493Z,18.79
2019-03-23T21:22:55.398Z,23.93
2019-03-23T21:28:04.287Z,20.90
2019-03-23T21:33:13.240Z,23.34
2019-03-23T21:38:22.100Z,24.96
2019-03-23T21:43:31.010Z,18.91
2019-03-23T21:48:39.867Z,20.65
2019-03-23T21:53:48.794Z,19.63
2019-03-23T21:58:57.668Z,20.81
2019-03-23T22:04:06.591Z,16.45
2019-03-23T22:09:15.488Z,20.10
2019-03-23T22:14:24.360Z,19.36
2019-03-23T22:19:33.219Z,21.67
2019-03-23T22:24:42.084Z,30.52
2019-03-23T22:29:51.185Z,35.16
2019-03-23T22:35:00.113Z,33.56
2019-03-23T22:40:08.973Z,42.33
2019-03-23T22:45:17.839Z,35.71
2019-03-23T22:50:26.774Z,31.60
2019-03-23T22:55:35.683Z,37.21
2019-03-23T23:00:44.585Z,33.69
2019-03-23T23:05:53.487Z,31.37
2019-03-23T23:11:02.422Z,35.27
2019-03-23T23:16:11.259Z,34.99
2019-03-23T23:21:20.180Z,30.58
2019-03-23T23:26:29.028Z,28.69
2019-03-23T23:31:37.982Z,28.78
2019-03-23T23:36:46.826Z,30.63
2019-03-23T23:41:55.714Z,33.69
2019-03-23T23:47:04.599Z,32.15
2019-03-23T23:52:13.531Z,35.43
2019-03-23T23:57:22.444Z,31.55
